createdAt,value
2023-05-16T00:04:07.703Z,73.11
2023-05-16T00:12:05.736Z,72.83
2023-05-16T00:17:43.127Z,73.81
2023-05-16T00:23:33.841Z,73.17
2023-05-16T00:26:33.568Z,73.20
2023-05-16T00:32:22.791Z,73.39
2023-05-16T00:35:24.312Z,73.78
2023-05-16T00:37:51.959Z,73.58
2023-05-16T00:40:21.388Z,72.92
2023-05-16T00:42:51.495Z,73.06
2023-05-16T00:45:22.044Z,73.75
2023-05-16T00:50:57.398Z,73.55
2023-05-16T00:53:28.185Z,74.04
2023-05-16T00:58:52.787Z,73.42
2023-05-16T01:04:22.482Z,72.95
2023-05-16T01:07:19.112Z,72.89
2023-05-16T01:21:59.702Z,72.79
2023-05-16T01:27:50.251Z,73.16
2023-05-16T01:30:58.000Z,73.11
2023-05-16T01:33:53.517Z,72.86
2023-05-16T01:36:57.518Z,72.95
2023-05-16T01:40:03.592Z,73.01
2023-05-16T01:42:38.813Z,73.41
2023-05-16T01:45:30.535Z,73.34
2023-05-16T01:48:28.266Z,73.28
2023-05-16T01:50:59.065Z,72.67
2023-05-16T02:08:17.249Z,73.48
2023-05-16T02:19:30.412Z,73.21
2023-05-16T02:30:10.184Z,73.55
2023-05-16T02:32:53.832Z,74.06
2023-05-16T02:38:21.179Z,73.89
2023-05-16T02:40:49.105Z,74.15
2023-05-16T02:43:48.848Z,74.13
2023-05-16T02:46:54.673Z,74.39
2023-05-16T02:55:54.936Z,74.37
2023-05-16T02:58:22.905Z,74.31
2023-05-16T03:06:49.249Z,74.93
2023-05-16T03:13:37.875Z,74.29
2023-05-16T03:16:22.954Z,74.62
2023-05-16T03:21:38.186Z,75.18
2023-05-16T03:31:13.910Z,74.52
2023-05-16T03:33:47.570Z,74.57
2023-05-16T03:36:44.958Z,74.66
2023-05-16T03:52:23.130Z,74.58
2023-05-16T03:54:52.382Z,74.51
2023-05-16T04:00:41.943Z,73.86
2023-05-16T04:06:55.312Z,74.14
2023-05-16T04:08:57.132Z,74.18
2023-05-16T04:14:34.956Z,73.44
2023-05-16T04:18:54.360Z,74.00
2023-05-16T04:20:28.327Z,73.81
2023-05-16T04:27:17.225Z,73.99
2023-05-16T04:29:00.301Z,73.56
2023-05-16T04:38:14.946Z,73.72
2023-05-16T04:48:34.780Z,73.48
2023-05-16T04:51:31.807Z,73.93
2023-05-16T04:57:37.419Z,74.40
2023-05-16T05:00:42.928Z,73.88
2023-05-16T05:15:02.609Z,74.15
2023-05-16T05:27:09.137Z,73.58
2023-05-16T05:29:36.125Z,73.46
2023-05-16T05:32:29.729Z,74.28
2023-05-16T05:39:01.487Z,73.30
2023-05-16T05:45:12.468Z,72.87
2023-05-16T05:47:40.806Z,73.72
2023-05-16T05:50:24.621Z,73.72
2023-05-16T05:53:39.547Z,72.89
2023-05-16T05:56:23.144Z,72.31
2023-05-16T05:58:52.359Z,72.36
2023-05-16T06:01:47.631Z,71.27
2023-05-16T06:04:14.361Z,70.86
2023-05-16T06:06:40.925Z,70.89
2023-05-16T06:09:07.623Z,69.88
2023-05-16T06:11:34.311Z,68.79
2023-05-16T06:14:00.987Z,68.82
2023-05-16T06:16:45.514Z,68.65
2023-05-16T06:19:15.977Z,68.00
2023-05-16T06:21:43.758Z,67.60
2023-05-16T06:24:12.203Z,66.32
2023-05-16T06:26:38.777Z,67.67
2023-05-16T06:29:05.290Z,67.43
2023-05-16T06:31:32.297Z,65.73
2023-05-16T06:34:02.962Z,65.43
2023-05-16T06:37:00.086Z,65.00
2023-05-16T06:39:47.425Z,65.22
2023-05-16T06:42:14.255Z,64.07
2023-05-16T06:45:09.688Z,65.03
2023-05-16T06:47:58.544Z,64.57
2023-05-16T06:56:49.006Z,64.48
2023-05-16T06:59:19.916Z,64.60
2023-05-16T07:01:46.851Z,65.07
2023-05-16T07:04:41.483Z,64.49
2023-05-16T07:16:13.816Z,60.45
2023-05-16T07:18:43.869Z,61.15
2023-05-16T07:21:11.492Z,61.84
2023-05-16T07:24:18.926Z,61.21
2023-05-16T07:26:44.862Z,60.42
2023-05-16T07:37:54.459Z,61.41
2023-05-16T07:43:00.261Z,60.96
2023-05-16T07:46:04.857Z,61.38
2023-05-16T07:48:41.570Z,61.21
2023-05-16T07:51:12.063Z,62.22
2023-05-16T07:53:38.748Z,61.73
2023-05-16T07:56:08.545Z,61.33
2023-05-16T07:58:35.571Z,59.95
2023-05-16T08:04:12.652Z,63.84
2023-05-16T08:06:39.383Z,65.74
2023-05-16T08:14:39.006Z,65.76
2023-05-16T08:17:17.794Z,66.50
2023-05-16T08:19:44.504Z,66.78
2023-05-16T08:22:13.664Z,65.00
2023-05-16T08:24:43.172Z,65.98
2023-05-16T08:27:15.100Z,65.83
2023-05-16T08:29:49.722Z,63.29
2023-05-16T08:32:17.636Z,62.31
2023-05-16T08:35:06.641Z,62.08
2023-05-16T08:37:55.845Z,61.93
2023-05-16T08:41:24.064Z,61.01
2023-05-16T08:44:13.669Z,60.93
2023-05-16T08:46:53.991Z,61.27
2023-05-16T08:49:21.448Z,60.82
2023-05-16T08:51:49.314Z,60.18
2023-05-16T08:54:47.029Z,59.89
2023-05-16T08:57:14.627Z,58.79
2023-05-16T08:59:43.749Z,58.20
2023-05-16T09:02:14.345Z,57.90
2023-05-16T09:04:41.700Z,56.88
2023-05-16T09:07:30.414Z,56.66
2023-05-16T09:09:57.558Z,56.38
2023-05-16T09:15:40.064Z,55.63
2023-05-16T09:18:42.913Z,54.95
2023-05-16T09:21:29.697Z,56.19
2023-05-16T09:27:15.413Z,54.01
2023-05-16T09:29:53.650Z,53.60
2023-05-16T09:38:20.234Z,53.24
2023-05-16T09:40:50.900Z,51.17
2023-05-16T09:43:18.557Z,49.92
2023-05-16T09:45:57.187Z,50.93
2023-05-16T09:51:22.041Z,55.23
2023-05-16T09:54:20.153Z,55.97
2023-05-16T09:56:59.433Z,50.50
2023-05-16T09:59:38.806Z,50.45
2023-05-16T10:02:35.797Z,49.84
2023-05-16T10:05:06.161Z,49.10
2023-05-16T10:07:58.400Z,50.77
2023-05-16T10:10:44.964Z,52.94
2023-05-16T10:13:13.028Z,51.82
2023-05-16T10:15:39.795Z,48.73
2023-05-16T10:18:11.829Z,49.82
2023-05-16T10:20:49.077Z,47.23
2023-05-16T10:23:43.926Z,47.68
2023-05-16T10:26:59.837Z,49.25
2023-05-16T10:32:56.406Z,51.23
2023-05-16T10:35:23.488Z,50.70
2023-05-16T10:37:51.679Z,50.15
2023-05-16T10:40:24.309Z,48.32
2023-05-16T10:43:23.870Z,50.65
2023-05-16T10:46:14.023Z,49.82
2023-05-16T10:48:45.151Z,50.92
2023-05-16T10:51:24.059Z,51.79
2023-05-16T10:53:53.400Z,50.20
2023-05-16T10:56:30.282Z,50.12
2023-05-16T10:58:57.109Z,48.29
2023-05-16T11:04:13.403Z,47.42
2023-05-16T11:06:41.108Z,46.93
2023-05-16T11:09:27.650Z,46.67
2023-05-16T11:11:58.705Z,48.95
2023-05-16T11:14:37.441Z,48.53
2023-05-16T11:17:15.901Z,48.67
2023-05-16T11:19:47.079Z,45.91
2023-05-16T11:22:24.209Z,47.28
2023-05-16T11:25:02.939Z,46.58
2023-05-16T11:27:31.622Z,47.02
2023-05-16T11:30:04.025Z,48.74
2023-05-16T11:32:34.008Z,48.80
2023-05-16T11:35:00.888Z,49.05
2023-05-16T11:37:29.449Z,49.16
2023-05-16T11:40:03.167Z,49.22
2023-05-16T11:42:32.921Z,51.23
2023-05-16T11:45:07.334Z,50.53
2023-05-16T11:47:34.526Z,50.55
2023-05-16T11:50:02.554Z,50.90
2023-05-16T11:52:29.113Z,52.01
2023-05-16T11:54:57.485Z,52.22
2023-05-16T11:57:25.144Z,53.75
2023-05-16T11:59:53.236Z,54.26
2023-05-16T12:02:20.061Z,52.84
2023-05-16T12:04:50.771Z,54.00
2023-05-16T12:07:17.511Z,52.68
2023-05-16T12:09:53.578Z,52.40
2023-05-16T12:12:22.362Z,53.99
2023-05-16T12:14:49.198Z,53.05
2023-05-16T12:17:16.225Z,52.10
2023-05-16T12:19:42.908Z,51.25
2023-05-16T12:22:19.983Z,52.19
2023-05-16T12:24:46.579Z,52.63
2023-05-16T12:27:14.043Z,52.35
2023-05-16T12:29:40.732Z,52.26
2023-05-16T12:32:08.650Z,52.58
2023-05-16T12:34:35.413Z,53.78
2023-05-16T12:37:02.136Z,53.51
2023-05-16T12:39:37.189Z,58.31
2023-05-16T12:42:07.647Z,54.48
2023-05-16T12:44:40.027Z,53.12
2023-05-16T12:47:13.548Z,57.13
2023-05-16T12:49:47.095Z,54.60
2023-05-16T12:52:20.639Z,55.50
2023-05-16T12:54:48.463Z,56.04
2023-05-16T12:57:16.135Z,57.75
2023-05-16T12:59:42.652Z,56.58
2023-05-16T13:02:10.136Z,53.60
2023-05-16T13:04:37.923Z,55.41
2023-05-16T13:07:04.815Z,53.46
2023-05-16T13:09:33.108Z,56.30
2023-05-16T13:12:00.247Z,56.83
2023-05-16T13:14:27.151Z,55.94
2023-05-16T13:16:53.825Z,57.81
2023-05-16T13:19:22.227Z,54.55
2023-05-16T13:21:48.826Z,53.77
2023-05-16T13:24:19.516Z,55.71
2023-05-16T13:26:47.101Z,54.24
2023-05-16T13:29:14.908Z,55.46
2023-05-16T13:31:42.078Z,56.83
2023-05-16T13:34:10.745Z,55.71
2023-05-16T13:36:52.261Z,54.84
2023-05-16T13:39:20.979Z,54.71
2023-05-16T13:41:49.541Z,57.26
2023-05-16T13:44:16.872Z,56.68
2023-05-16T13:46:43.776Z,55.62
2023-05-16T13:49:10.525Z,55.96
2023-05-16T13:51:38.073Z,54.90
2023-05-16T13:54:04.644Z,55.95
2023-05-16T13:56:32.168Z,55.50
2023-05-16T13:59:05.754Z,53.08
2023-05-16T14:01:32.735Z,54.35
2023-05-16T14:03:59.658Z,53.93
2023-05-16T14:06:26.492Z,56.74
2023-05-16T14:08:54.105Z,56.02
2023-05-16T14:11:28.421Z,54.28
2023-05-16T14:13:56.401Z,52.53
2023-05-16T14:16:23.283Z,54.77
2023-05-16T14:18:50.052Z,55.76
2023-05-16T14:21:16.754Z,53.62
2023-05-16T14:23:43.359Z,53.11
2023-05-16T14:26:10.021Z,55.62
2023-05-16T14:28:36.554Z,55.66
2023-05-16T14:31:07.213Z,53.19
2023-05-16T14:33:33.723Z,53.66
2023-05-16T14:36:00.469Z,54.20
2023-05-16T14:38:28.073Z,55.35
2023-05-16T14:40:54.660Z,53.42
2023-05-16T14:43:21.380Z,52.03
2023-05-16T14:45:47.899Z,53.63
2023-05-16T14:48:14.674Z,53.12
2023-05-16T14:50:42.468Z,52.84
2023-05-16T14:53:09.272Z,52.91
2023-05-16T14:55:37.253Z,54.78
2023-05-16T14:58:04.978Z,55.34
2023-05-16T15:00:32.988Z,54.83
2023-05-16T15:02:59.577Z,54.09
2023-05-16T15:05:26.284Z,53.25
2023-05-16T15:07:52.844Z,53.55
2023-05-16T15:10:19.626Z,53.59
2023-05-16T15:12:46.241Z,53.93
2023-05-16T15:15:15.570Z,54.66
2023-05-16T15:17:43.064Z,53.34
2023-05-16T15:20:11.143Z,52.53
2023-05-16T15:22:39.904Z,51.81
2023-05-16T15:25:08.368Z,53.56
2023-05-16T15:27:35.093Z,53.10
2023-05-16T15:30:01.715Z,52.33
2023-05-16T15:32:29.278Z,52.31
2023-05-16T15:34:56.011Z,52.67
2023-05-16T15:37:22.907Z,53.45
2023-05-16T15:39:50.381Z,53.49
2023-05-16T15:42:19.020Z,53.04
2023-05-16T15:44:45.796Z,52.34
2023-05-16T15:47:12.367Z,54.03
2023-05-16T15:49:39.354Z,54.40
2023-05-16T15:52:06.210Z,53.79
2023-05-16T15:54:32.889Z,53.79
2023-05-16T15:56:59.477Z,53.99
2023-05-16T15:59:25.995Z,54.13
2023-05-16T16:01:54.811Z,53.46
2023-05-16T16:04:23.840Z,54.85
2023-05-16T16:06:50.798Z,53.88
2023-05-16T16:09:17.555Z,53.89
2023-05-16T16:11:45.281Z,55.00
2023-05-16T16:14:12.356Z,54.24
2023-05-16T16:16:41.684Z,54.39
2023-05-16T16:19:09.335Z,56.41
2023-05-16T16:21:36.050Z,56.65
2023-05-16T16:24:02.831Z,55.97
2023-05-16T16:26:30.399Z,56.79
2023-05-16T16:28:57.071Z,56.23
2023-05-16T16:31:25.259Z,57.70
2023-05-16T16:33:52.101Z,57.78
2023-05-16T16:36:18.796Z,59.67
2023-05-16T16:38:45.505Z,60.53
2023-05-16T16:41:15.089Z,61.59
2023-05-16T16:43:42.171Z,61.76
2023-05-16T16:46:09.987Z,61.92
2023-05-16T16:48:36.850Z,62.26
2023-05-16T16:51:04.728Z,60.64
2023-05-16T16:53:32.328Z,61.65
2023-05-16T16:55:58.928Z,61.53
2023-05-16T16:58:26.476Z,62.08
2023-05-16T17:00:53.053Z,62.02
2023-05-16T17:03:21.570Z,62.37
2023-05-16T17:05:49.349Z,62.88
2023-05-16T17:08:16.025Z,62.56
2023-05-16T17:10:43.543Z,62.01
2023-05-16T17:13:10.355Z,62.18
2023-05-16T17:15:37.824Z,61.93
2023-05-16T17:18:12.527Z,61.68
2023-05-16T17:20:40.359Z,62.75
2023-05-16T17:23:06.974Z,62.71
2023-05-16T17:25:33.690Z,63.12
2023-05-16T17:28:00.192Z,64.03
2023-05-16T17:30:26.814Z,63.42
2023-05-16T17:32:59.178Z,63.31
2023-05-16T17:35:26.265Z,63.25
2023-05-16T17:37:52.941Z,62.41
2023-05-16T17:40:19.570Z,63.47
2023-05-16T17:42:46.463Z,61.70
2023-05-16T17:45:15.803Z,60.14
2023-05-16T17:47:42.756Z,60.68
2023-05-16T17:50:10.487Z,64.18
2023-05-16T17:52:40.713Z,62.43
2023-05-16T17:55:09.160Z,62.36
2023-05-16T17:57:36.095Z,62.05
2023-05-16T18:00:05.420Z,61.78
2023-05-16T18:02:34.889Z,61.94
2023-05-16T18:05:03.619Z,61.82
2023-05-16T18:12:47.126Z,62.31
2023-05-16T18:15:14.761Z,61.36
2023-05-16T18:17:41.368Z,61.84
2023-05-16T18:20:10.532Z,61.86
2023-05-16T18:22:38.282Z,61.33
2023-05-16T18:25:05.925Z,62.11
2023-05-16T18:27:34.850Z,62.29
2023-05-16T18:30:01.751Z,61.35
2023-05-16T18:32:28.753Z,62.28
2023-05-16T18:34:55.570Z,62.41
2023-05-16T18:37:22.134Z,61.44
2023-05-16T18:39:50.072Z,62.78
2023-05-16T18:42:17.866Z,63.38
2023-05-16T18:44:45.705Z,63.07
2023-05-16T18:47:15.520Z,63.67
2023-05-16T18:49:43.317Z,64.41
2023-05-16T18:52:11.369Z,64.60
2023-05-16T18:54:39.933Z,64.99
2023-05-16T18:57:06.843Z,65.19
2023-05-16T18:59:34.216Z,65.50
2023-05-16T19:02:00.940Z,64.90
2023-05-16T19:04:27.726Z,65.25
2023-05-16T19:06:56.274Z,65.53
2023-05-16T19:09:24.223Z,65.73
2023-05-16T19:11:52.054Z,65.64
2023-05-16T19:14:18.710Z,65.74
2023-05-16T19:16:45.309Z,65.61
2023-05-16T19:19:11.959Z,65.73
2023-05-16T19:21:40.270Z,65.87
2023-05-16T19:24:07.517Z,66.09
2023-05-16T19:26:34.113Z,66.76
2023-05-16T19:29:00.786Z,66.57
2023-05-16T19:31:27.447Z,66.35
2023-05-16T19:33:54.129Z,66.04
2023-05-16T19:36:21.249Z,66.93
2023-05-16T19:38:47.866Z,66.27
2023-05-16T19:41:14.456Z,67.04
2023-05-16T19:43:41.114Z,67.28
2023-05-16T19:46:07.761Z,67.08
2023-05-16T19:48:35.256Z,67.60
2023-05-16T19:51:02.148Z,67.83
2023-05-16T19:53:28.794Z,67.55
2023-05-16T19:55:55.561Z,67.74
2023-05-16T19:58:22.375Z,68.06
2023-05-16T20:00:50.777Z,68.92
2023-05-16T20:03:17.498Z,68.70
2023-05-16T20:05:44.277Z,68.93
2023-05-16T20:08:16.006Z,69.95
2023-05-16T20:10:42.665Z,70.13
2023-05-16T20:13:10.339Z,70.33
2023-05-16T20:15:36.930Z,70.21
2023-05-16T20:18:03.763Z,70.28
2023-05-16T20:20:30.468Z,70.28
2023-05-16T20:22:57.113Z,70.20
2023-05-16T20:25:23.756Z,70.26
2023-05-16T20:27:50.299Z,70.62
2023-05-16T20:30:16.936Z,70.75
2023-05-16T20:32:43.612Z,71.05
2023-05-16T20:35:11.263Z,70.96
2023-05-16T20:37:38.162Z,71.25
2023-05-16T20:40:06.231Z,70.84
2023-05-16T20:42:32.920Z,70.99
2023-05-16T20:44:59.517Z,71.23
2023-05-16T20:47:26.191Z,71.37
2023-05-16T20:49:52.812Z,71.46
2023-05-16T20:52:21.891Z,71.27
2023-05-16T20:54:48.708Z,71.17
2023-05-16T20:57:16.158Z,71.48
2023-05-16T20:59:42.851Z,71.51
2023-05-16T21:02:10.479Z,71.49
2023-05-16T21:04:38.119Z,71.15
2023-05-16T21:07:06.771Z,72.02
2023-05-16T21:09:35.180Z,72.31
2023-05-16T21:12:02.019Z,72.01
2023-05-16T21:14:28.508Z,72.21
2023-05-16T21:16:55.042Z,72.26
2023-05-16T21:19:21.760Z,72.75
2023-05-16T21:21:48.383Z,72.73
2023-05-16T21:24:14.966Z,72.54
2023-05-16T21:26:41.468Z,72.53
2023-05-16T21:29:08.016Z,72.69
2023-05-16T21:31:34.583Z,72.55
2023-05-16T21:34:01.124Z,72.42
2023-05-16T21:36:27.688Z,72.68
2023-05-16T21:38:54.289Z,72.74
2023-05-16T21:41:22.364Z,72.99
2023-05-16T21:43:48.940Z,72.91
2023-05-16T21:46:15.709Z,73.25
2023-05-16T21:48:42.313Z,73.31
2023-05-16T21:51:10.012Z,73.06
2023-05-16T21:53:38.270Z,73.64
2023-05-16T21:56:06.275Z,74.17
2023-05-16T21:58:32.820Z,74.19
2023-05-16T22:00:59.284Z,74.23
2023-05-16T22:03:26.074Z,73.70
2023-05-16T22:05:52.742Z,74.28
2023-05-16T22:08:19.405Z,74.00
2023-05-16T22:10:46.058Z,74.57
2023-05-16T22:13:12.624Z,74.38
2023-05-16T22:15:40.701Z,74.21
2023-05-16T22:18:07.542Z,74.41
2023-05-16T22:20:34.124Z,74.21
2023-05-16T22:23:04.974Z,74.43
2023-05-16T22:25:31.623Z,75.34
2023-05-16T22:27:58.170Z,74.98
2023-05-16T22:30:24.769Z,74.94
2023-05-16T22:32:51.363Z,75.44
2023-05-16T22:35:18.137Z,75.35
2023-05-16T22:37:44.775Z,74.96
2023-05-16T22:40:11.592Z,75.32
2023-05-16T22:42:38.206Z,75.69
2023-05-16T22:45:05.309Z,75.84
2023-05-16T22:47:32.009Z,75.74
2023-05-16T22:49:58.644Z,76.00
2023-05-16T22:52:25.478Z,76.43
2023-05-16T22:54:52.046Z,76.37
2023-05-16T22:57:18.575Z,76.34
2023-05-16T22:59:45.179Z,76.74
2023-05-16T23:02:11.657Z,76.56
2023-05-16T23:04:38.342Z,76.56
2023-05-16T23:07:05.495Z,77.08
2023-05-16T23:09:32.096Z,76.92
2023-05-16T23:11:59.099Z,77.19
2023-05-16T23:14:26.006Z,77.22
2023-05-16T23:16:52.550Z,77.00
2023-05-16T23:19:19.235Z,77.42
2023-05-16T23:21:45.885Z,77.49
2023-05-16T23:24:12.410Z,77.65
2023-05-16T23:26:39.003Z,77.57
2023-05-16T23:29:06.187Z,77.62
2023-05-16T23:31:32.881Z,78.00
2023-05-16T23:34:00.578Z,77.75
2023-05-16T23:36:27.345Z,78.39
2023-05-16T23:38:53.865Z,78.43
2023-05-16T23:41:20.452Z,78.24
2023-05-16T23:43:47.821Z,78.14
2023-05-16T23:46:14.323Z,78.18
2023-05-16T23:48:40.909Z,78.31
2023-05-16T23:51:07.758Z,78.78
2023-05-16T23:53:35.539Z,78.42
2023-05-16T23:56:02.253Z,78.94
2023-05-16T23:58:29.020Z,79.17
